sensor_id;sensor_type;location;lat;lon;timestamp;pressure;altitude;pressure_sealevel;temperature;humidity
41222;BME280;26952;42.884;23.918;2023-04-20T00:01:54;95464.09;;;8.67;100.00
41222;BME280;26952;42.884;23.918;2023-04-20T00:04:21;95447.94;;;8.62;100.00
41222;BME280;26952;42.884;23.918;2023-04-20T00:06:47;95445.13;;;8.64;100.00
41222;BME280;26952;42.884;23.918;2023-04-20T00:09:13;95444.28;;;8.63;100.00
41222;BME280;26952;42.884;23.918;2023-04-20T00:11:39;95459.44;;;8.69;100.00
41222;BME280;26952;42.884;23.918;2023-04-20T00:14:05;95438.34;;;8.61;100.00
41222;BME280;26952;42.884;23.918;2023-04-20T00:16:31;95437.09;;;8.49;100.00
41222;BME280;26952;42.884;23.918;2023-04-20T00:18:58;95458.31;;;8.64;100.00
41222;BME280;26952;42.884;23.918;2023-04-20T00:21:24;95428.81;;;8.60;100.00
41222;BME280;26952;42.884;23.918;2023-04-20T00:23:50;95447.38;;;8.75;100.00
41222;BME280;26952;42.884;23.918;2023-04-20T00:26:16;95450.53;;;8.70;100.00
41222;BME280;26952;42.884;23.918;2023-04-20T00:28:42;95441.81;;;8.62;100.00
41222;BME280;26952;42.884;23.918;2023-04-20T00:31:07;95373.25;;;8.07;100.00
41222;BME280;26952;42.884;23.918;2023-04-20T00:33:33;95445.50;;;8.44;100.00
41222;BME280;26952;42.884;23.918;2023-04-20T00:35:58;95424.63;;;8.27;100.00
41222;BME280;26952;42.884;23.918;2023-04-20T00:38:23;95441.09;;;8.37;100.00
41222;BME280;26952;42.884;23.918;2023-04-20T00:40:49;95438.78;;;8.34;100.00
41222;BME280;26952;42.884;23.918;2023-04-20T00:43:18;95432.88;;;8.24;100.00
41222;BME280;26952;42.884;23.918;2023-04-20T00:45:44;95432.38;;;8.12;100.00
41222;BME280;26952;42.884;23.918;2023-04-20T00:48:10;95446.03;;;8.16;100.00
41222;BME280;26952;42.884;23.918;2023-04-20T00:50:37;95437.63;;;8.20;100.00
41222;BME280;26952;42.884;23.918;2023-04-20T00:53:03;95429.41;;;8.07;100.00
41222;BME280;26952;42.884;23.918;2023-04-20T00:55:29;95415.13;;;7.94;100.00
41222;BME280;26952;42.884;23.918;2023-04-20T00:57:55;95446.06;;;8.08;100.00
41222;BME280;26952;42.884;23.918;2023-04-20T01:00:21;95428.78;;;7.97;100.00
41222;BME280;26952;42.884;23.918;2023-04-20T01:02:46;95402.94;;;7.77;100.00
41222;BME280;26952;42.884;23.918;2023-04-20T01:05:12;95441.13;;;7.97;100.00
41222;BME280;26952;42.884;23.918;2023-04-20T01:07:38;95406.41;;;7.85;100.00
41222;BME280;26952;42.884;23.918;2023-04-20T01:10:05;95422.53;;;7.90;100.00
41222;BME280;26952;42.884;23.918;2023-04-20T01:12:31;95429.59;;;7.90;100.00
41222;BME280;26952;42.884;23.918;2023-04-20T01:14:56;95420.41;;;7.86;100.00
41222;BME280;26952;42.884;23.918;2023-04-20T01:17:21;95415.94;;;7.78;100.00
41222;BME280;26952;42.884;23.918;2023-04-20T01:19:48;95324.69;;;7.07;100.00
41222;BME280;26952;42.884;23.918;2023-04-20T01:22:16;95419.09;;;7.58;100.00
41222;BME280;26952;42.884;23.918;2023-04-20T01:24:42;95417.13;;;7.44;100.00
41222;BME280;26952;42.884;23.918;2023-04-20T01:27:08;95396.22;;;7.18;100.00
41222;BME280;26952;42.884;23.918;2023-04-20T01:29:33;95360.84;;;6.96;100.00
41222;BME280;26952;42.884;23.918;2023-04-20T01:31:59;95420.38;;;7.22;100.00
41222;BME280;26952;42.884;23.918;2023-04-20T01:34:24;95408.19;;;7.04;100.00
41222;BME280;26952;42.884;23.918;2023-04-20T01:36:50;95415.09;;;6.97;100.00
41222;BME280;26952;42.884;23.918;2023-04-20T01:39:16;95403.28;;;7.01;100.00
41222;BME280;26952;42.884;23.918;2023-04-20T01:41:41;95409.66;;;7.07;100.00
41222;BME280;26952;42.884;23.918;2023-04-20T01:44:07;95409.81;;;6.89;100.00
41222;BME280;26952;42.884;23.918;2023-04-20T01:46:36;95425.78;;;6.96;100.00
41222;BME280;26952;42.884;23.918;2023-04-20T01:49:01;95421.03;;;6.99;100.00
41222;BME280;26952;42.884;23.918;2023-04-20T01:51:27;95415.06;;;6.81;100.00
41222;BME280;26952;42.884;23.918;2023-04-20T01:53:52;95423.13;;;6.88;100.00
41222;BME280;26952;42.884;23.918;2023-04-20T01:56:17;95410.44;;;6.75;100.00
41222;BME280;26952;42.884;23.918;2023-04-20T01:58:43;95400.88;;;6.74;100.00
41222;BME280;26952;42.884;23.918;2023-04-20T02:01:08;95401.72;;;6.75;100.00
41222;BME280;26952;42.884;23.918;2023-04-20T02:03:33;95386.41;;;6.62;100.00
41222;BME280;26952;42.884;23.918;2023-04-20T02:05:59;95415.06;;;6.81;100.00
41222;BME280;26952;42.884;23.918;2023-04-20T02:08:24;95414.09;;;6.90;100.00
41222;BME280;26952;42.884;23.918;2023-04-20T02:10:50;95394.34;;;6.78;100.00
41222;BME280;26952;42.884;23.918;2023-04-20T02:13:15;95411.41;;;6.82;100.00
41222;BME280;26952;42.884;23.918;2023-04-20T02:15:40;95405.38;;;6.82;100.00
41222;BME280;26952;42.884;23.918;2023-04-20T02:18:06;95335.41;;;6.39;100.00
41222;BME280;26952;42.884;23.918;2023-04-20T02:20:31;95394.34;;;6.78;100.00
41222;BME280;26952;42.884;23.918;2023-04-20T02:22:57;95397.44;;;6.74;100.00
41222;BME280;26952;42.884;23.918;2023-04-20T02:25:22;95418.69;;;6.80;100.00
41222;BME280;26952;42.884;23.918;2023-04-20T02:27:48;95412.66;;;6.54;100.00
41222;BME280;26952;42.884;23.918;2023-04-20T02:30:13;95401.31;;;6.54;100.00
41222;BME280;26952;42.884;23.918;2023-04-20T02:32:39;95395.88;;;6.47;100.00
41222;BME280;26952;42.884;23.918;2023-04-20T02:35:05;95405.47;;;6.56;100.00
41222;BME280;26952;42.884;23.918;2023-04-20T02:37:30;95410.38;;;6.59;100.00
41222;BME280;26952;42.884;23.918;2023-04-20T02:39:56;95432.44;;;6.74;100.00
41222;BME280;26952;42.884;23.918;2023-04-20T02:42:21;95410.38;;;6.59;100.00
41222;BME280;26952;42.884;23.918;2023-04-20T02:44:47;95403.50;;;6.66;100.00
41222;BME280;26952;42.884;23.918;2023-04-20T02:47:12;95410.09;;;6.70;100.00
41222;BME280;26952;42.884;23.918;2023-04-20T02:49:37;95426.59;;;6.88;100.00
41222;BME280;26952;42.884;23.918;2023-04-20T02:52:03;95349.84;;;6.35;100.00
41222;BME280;26952;42.884;23.918;2023-04-20T02:54:29;95433.47;;;6.89;100.00
41222;BME280;26952;42.884;23.918;2023-04-20T02:56:54;95409.44;;;6.76;100.00
41222;BME280;26952;42.884;23.918;2023-04-20T02:59:20;95398.25;;;6.74;100.00
41222;BME280;26952;42.884;23.918;2023-04-20T03:01:45;95405.38;;;6.82;100.00
41222;BME280;26952;42.884;23.918;2023-04-20T03:04:11;95398.91;;;6.68;100.00
41222;BME280;26952;42.884;23.918;2023-04-20T03:06:36;95412.22;;;6.67;100.00
41222;BME280;26952;42.884;23.918;2023-04-20T03:09:04;95401.56;;;6.76;100.00
41222;BME280;26952;42.884;23.918;2023-04-20T03:11:30;95400.59;;;6.85;100.00
41222;BME280;26952;42.884;23.918;2023-04-20T03:13:55;95414.09;;;6.90;100.00
41222;BME280;26952;42.884;23.918;2023-04-20T03:16:20;95399.59;;;6.78;100.00
41222;BME280;26952;42.884;23.918;2023-04-20T03:18:46;95409.28;;;6.78;100.00
41222;BME280;26952;42.884;23.918;2023-04-20T03:21:11;95425.94;;;6.94;100.00
41222;BME280;26952;42.884;23.918;2023-04-20T03:23:36;95430.06;;;6.97;100.00
41222;BME280;26952;42.884;23.918;2023-04-20T03:26:02;95415.75;;;6.91;100.00
41222;BME280;26952;42.884;23.918;2023-04-20T03:28:28;95412.25;;;6.83;100.00
41222;BME280;26952;42.884;23.918;2023-04-20T03:30:53;95358.09;;;6.48;100.00
41222;BME280;26952;42.884;23.918;2023-04-20T03:33:19;95415.72;;;6.83;100.00
41222;BME280;26952;42.884;23.918;2023-04-20T03:35:44;95402.03;;;6.72;100.00
41222;BME280;26952;42.884;23.918;2023-04-20T03:38:10;95407.94;;;6.66;100.00
41222;BME280;26952;42.884;23.918;2023-04-20T03:40:35;95417.16;;;6.70;100.00
41222;BME280;26952;42.884;23.918;2023-04-20T03:43:01;95417.47;;;6.67;100.00
41222;BME280;26952;42.884;23.918;2023-04-20T03:45:26;95422.53;;;6.60;100.00
41222;BME280;26952;42.884;23.918;2023-04-20T03:47:51;95394.38;;;6.37;100.00
41222;BME280;26952;42.884;23.918;2023-04-20T03:50:17;95421.91;;;6.66;100.00
41222;BME280;26952;42.884;23.918;2023-04-20T03:52:42;95426.22;;;6.75;100.00
41222;BME280;26952;42.884;23.918;2023-04-20T03:55:08;95433.81;;;6.86;100.00
41222;BME280;26952;42.884;23.918;2023-04-20T03:57:33;95418.34;;;6.83;100.00
41222;BME280;26952;42.884;23.918;2023-04-20T03:59:59;95420.00;;;6.92;100.00
41222;BME280;26952;42.884;23.918;2023-04-20T04:02:24;95433.34;;;6.99;100.00
41222;BME280;26952;42.884;23.918;2023-04-20T04:04:50;95417.03;;;6.87;100.00
41222;BME280;26952;42.884;23.918;2023-04-20T04:07:15;95423.31;;;7.02;100.00
41222;BME280;26952;42.884;23.918;2023-04-20T04:09:40;95431.22;;;7.02;100.00
41222;BME280;26952;42.884;23.918;2023-04-20T04:12:06;95425.63;;;7.14;100.00
41222;BME280;26952;42.884;23.918;2023-04-20T04:14:33;95442.28;;;7.30;100.00
41222;BME280;26952;42.884;23.918;2023-04-20T04:16:59;95376.13;;;6.93;100.00
41222;BME280;26952;42.884;23.918;2023-04-20T04:19:24;95437.84;;;7.31;100.00
41222;BME280;26952;42.884;23.918;2023-04-20T04:21:50;95445.75;;;7.39;100.00
41222;BME280;26952;42.884;23.918;2023-04-20T04:24:15;95424.03;;;7.29;100.00
41222;BME280;26952;42.884;23.918;2023-04-20T04:26:41;95434.56;;;7.45;100.00
41222;BME280;26952;42.884;23.918;2023-04-20T04:29:07;95419.94;;;7.42;100.00
41222;BME280;26952;42.884;23.918;2023-04-20T04:31:33;95439.50;;;7.64;100.00
41222;BME280;26952;42.884;23.918;2023-04-20T04:33:59;95379.44;;;7.27;100.00
41222;BME280;26952;42.884;23.918;2023-04-20T04:36:25;95454.50;;;7.79;100.00
41222;BME280;26952;42.884;23.918;2023-04-20T04:38:51;95434.22;;;7.64;100.00
41222;BME280;26952;42.884;23.918;2023-04-20T04:41:17;95450.69;;;7.90;100.00
41222;BME280;26952;42.884;23.918;2023-04-20T04:43:43;95440.97;;;7.90;100.00
41222;BME280;26952;42.884;23.918;2023-04-20T04:46:09;95440.47;;;8.03;100.00
41222;BME280;26952;42.884;23.918;2023-04-20T04:48:39;95456.44;;;8.25;100.00
41222;BME280;26952;42.884;23.918;2023-04-20T04:51:08;95430.56;;;8.29;100.00
41222;BME280;26952;42.884;23.918;2023-04-20T04:53:34;95445.84;;;8.41;100.00
41222;BME280;26952;42.884;23.918;2023-04-20T04:55:59;95432.47;;;8.51;100.00
41222;BME280;26952;42.884;23.918;2023-04-20T04:58:25;95438.19;;;8.63;100.00
41222;BME280;26952;42.884;23.918;2023-04-20T05:00:50;95458.03;;;8.89;100.00
41222;BME280;26952;42.884;23.918;2023-04-20T05:03:16;95463.41;;;9.04;100.00
41222;BME280;26952;42.884;23.918;2023-04-20T05:05:41;95457.09;;;9.13;100.00
41222;BME280;26952;42.884;23.918;2023-04-20T05:08:07;95443.09;;;9.12;100.00
41222;BME280;26952;42.884;23.918;2023-04-20T05:10:32;95470.97;;;9.37;100.00
41222;BME280;26952;42.884;23.918;2023-04-20T05:12:58;95476.56;;;9.42;100.00
41222;BME280;26952;42.884;23.918;2023-04-20T05:15:24;95461.41;;;9.36;100.00
41222;BME280;26952;42.884;23.918;2023-04-20T05:17:50;95476.97;;;9.54;100.00
41222;BME280;26952;42.884;23.918;2023-04-20T05:20:16;95480.41;;;9.62;100.00
41222;BME280;26952;42.884;23.918;2023-04-20T05:22:41;95414.59;;;9.30;100.00
41222;BME280;26952;42.884;23.918;2023-04-20T05:25:07;95460.19;;;9.69;100.00
41222;BME280;26952;42.884;23.918;2023-04-20T05:27:33;95452.84;;;9.79;100.00
41222;BME280;26952;42.884;23.918;2023-04-20T05:29:58;95466.69;;;10.04;100.00
41222;BME280;26952;42.884;23.918;2023-04-20T05:32:24;95452.25;;;10.15;100.00
41222;BME280;26952;42.884;23.918;2023-04-20T05:34:49;95437.09;;;10.23;100.00
41222;BME280;26952;42.884;23.918;2023-04-20T05:37:15;95467.91;;;10.53;100.00
41222;BME280;26952;42.884;23.918;2023-04-20T05:39:41;95450.91;;;10.77;100.00
41222;BME280;26952;42.884;23.918;2023-04-20T05:42:06;95462.56;;;11.11;100.00
41222;BME280;26952;42.884;23.918;2023-04-20T05:44:32;95458.06;;;11.27;100.00
41222;BME280;26952;42.884;23.918;2023-04-20T05:46:58;95452.97;;;11.46;100.00
41222;BME280;26952;42.884;23.918;2023-04-20T05:49:23;95472.22;;;11.55;100.00
41222;BME280;26952;42.884;23.918;2023-04-20T05:51:49;95473.25;;;11.68;100.00
41222;BME280;26952;42.884;23.918;2023-04-20T05:54:15;95477.34;;;11.56;100.00
41222;BME280;26952;42.884;23.918;2023-04-20T05:56:40;95480.50;;;11.45;100.00
41222;BME280;26952;42.884;23.918;2023-04-20T05:59:06;95437.00;;;11.04;100.00
41222;BME280;26952;42.884;23.918;2023-04-20T06:01:32;95467.81;;;10.61;100.00
41222;BME280;26952;42.884;23.918;2023-04-20T06:03:57;95487.97;;;10.48;100.00
41222;BME280;26952;42.884;23.918;2023-04-20T06:06:23;95454.06;;;9.92;100.00
41222;BME280;26952;42.884;23.918;2023-04-20T06:08:48;95488.13;;;10.32;100.00
41222;BME280;26952;42.884;23.918;2023-04-20T06:11:15;95470.53;;;10.39;100.00
41222;BME280;26952;42.884;23.918;2023-04-20T06:13:40;95479.38;;;10.75;100.00
41222;BME280;26952;42.884;23.918;2023-04-20T06:16:06;95471.91;;;10.93;100.00
41222;BME280;26952;42.884;23.918;2023-04-20T06:18:34;95454.81;;;11.10;100.00
41222;BME280;26952;42.884;23.918;2023-04-20T06:21:00;95472.38;;;11.32;100.00
41222;BME280;26952;42.884;23.918;2023-04-20T06:23:26;95467.88;;;11.47;100.00
41222;BME280;26952;42.884;23.918;2023-04-20T06:25:51;95445.66;;;11.48;100.00
41222;BME280;26952;42.884;23.918;2023-04-20T06:28:17;95448.69;;;11.81;100.00
41222;BME280;26952;42.884;23.918;2023-04-20T06:30:42;95479.19;;;12.12;100.00
41222;BME280;26952;42.884;23.918;2023-04-20T06:33:07;95470.69;;;12.23;100.00
41222;BME280;26952;42.884;23.918;2023-04-20T06:35:33;95484.78;;;12.51;100.00
41222;BME280;26952;42.884;23.918;2023-04-20T06:37:58;95487.16;;;12.68;98.85
41222;BME280;26952;42.884;23.918;2023-04-20T06:40:27;95462.63;;;12.66;94.45
41222;BME280;26952;42.884;23.918;2023-04-20T06:42:53;95488.19;;;13.01;90.51
41222;BME280;26952;42.884;23.918;2023-04-20T06:45:18;95467.06;;;13.27;89.95
41222;BME280;26952;42.884;23.918;2023-04-20T06:47:44;95459.31;;;13.32;75.73
41222;BME280;26952;42.884;23.918;2023-04-20T06:50:10;95438.03;;;13.25;74.07
41222;BME280;26952;42.884;23.918;2023-04-20T06:52:36;95488.91;;;13.69;71.40
41222;BME280;26952;42.884;23.918;2023-04-20T06:55:02;95479.66;;;13.12;66.22
41222;BME280;26952;42.884;23.918;2023-04-20T06:57:27;95490.53;;;12.89;69.86
41222;BME280;26952;42.884;23.918;2023-04-20T06:59:53;95478.16;;;12.69;70.33
41222;BME280;26952;42.884;23.918;2023-04-20T07:02:18;95487.44;;;12.51;81.32
41222;BME280;26952;42.884;23.918;2023-04-20T07:04:43;95481.44;;;12.15;86.10
41222;BME280;26952;42.884;23.918;2023-04-20T07:07:09;95504.31;;;12.16;84.21
41222;BME280;26952;42.884;23.918;2023-04-20T07:09:34;95480.94;;;11.84;87.87
41222;BME280;26952;42.884;23.918;2023-04-20T07:12:01;95492.31;;;11.99;90.65
41222;BME280;26952;42.884;23.918;2023-04-20T07:14:26;95458.91;;;11.84;93.22
41222;BME280;26952;42.884;23.918;2023-04-20T07:16:52;95510.09;;;12.26;97.90
41222;BME280;26952;42.884;23.918;2023-04-20T07:19:18;95502.78;;;12.28;91.18
41222;BME280;26952;42.884;23.918;2023-04-20T07:21:43;95508.16;;;12.35;92.14
41222;BME280;26952;42.884;23.918;2023-04-20T07:24:09;95513.88;;;12.38;85.84
41222;BME280;26952;42.884;23.918;2023-04-20T07:26:34;95516.03;;;12.49;84.67
41222;BME280;26952;42.884;23.918;2023-04-20T07:29:00;95508.53;;;12.59;82.47
41222;BME280;26952;42.884;23.918;2023-04-20T07:31:25;95499.81;;;12.66;80.39
41222;BME280;26952;42.884;23.918;2023-04-20T07:33:50;95502.66;;;12.64;78.17
41222;BME280;26952;42.884;23.918;2023-04-20T07:36:16;95514.31;;;12.70;80.73
41222;BME280;26952;42.884;23.918;2023-04-20T07:38:41;95527.09;;;12.87;80.99
41222;BME280;26952;42.884;23.918;2023-04-20T07:41:10;95499.59;;;12.95;80.82
41222;BME280;26952;42.884;23.918;2023-04-20T07:43:36;95506.41;;;13.04;76.03
41222;BME280;26952;42.884;23.918;2023-04-20T07:46:01;95504.13;;;13.01;74.47
41222;BME280;26952;42.884;23.918;2023-04-20T07:48:27;95504.22;;;13.14;74.98
41222;BME280;26952;42.884;23.918;2023-04-20T07:50:52;95516.88;;;13.59;73.70
41222;BME280;26952;42.884;23.918;2023-04-20T07:53:18;95513.78;;;13.55;73.32
41222;BME280;26952;42.884;23.918;2023-04-20T07:55:43;95506.53;;;13.90;71.22
41222;BME280;26952;42.884;23.918;2023-04-20T07:58:08;95504.94;;;13.96;66.71
41222;BME280;26952;42.884;23.918;2023-04-20T08:00:34;95510.66;;;14.12;70.54
41222;BME280;26952;42.884;23.918;2023-04-20T08:02:59;95503.16;;;14.29;72.51
41222;BME280;26952;42.884;23.918;2023-04-20T08:05:25;95517.53;;;14.54;71.45
41222;BME280;26952;42.884;23.918;2023-04-20T08:07:51;95513.28;;;13.73;67.30
41222;BME280;26952;42.884;23.918;2023-04-20T08:10:16;95520.31;;;13.46;70.55
41222;BME280;26952;42.884;23.918;2023-04-20T08:12:41;95491.84;;;13.94;74.03
41222;BME280;26952;42.884;23.918;2023-04-20T08:15:07;95512.78;;;14.56;70.73
41222;BME280;26952;42.884;23.918;2023-04-20T08:17:33;95504.53;;;14.05;69.94
41222;BME280;26952;42.884;23.918;2023-04-20T08:19:58;95490.66;;;14.81;70.67
41222;BME280;26952;42.884;23.918;2023-04-20T08:22:24;95486.03;;;15.27;64.08
41222;BME280;26952;42.884;23.918;2023-04-20T08:24:54;95501.41;;;15.83;63.94
41222;BME280;26952;42.884;23.918;2023-04-20T08:27:20;95489.88;;;15.89;57.58
41222;BME280;26952;42.884;23.918;2023-04-20T08:29:45;95473.78;;;16.33;54.98
41222;BME280;26952;42.884;23.918;2023-04-20T08:32:10;95495.53;;;16.36;53.02
41222;BME280;26952;42.884;23.918;2023-04-20T08:34:37;95471.34;;;16.81;65.19
41222;BME280;26952;42.884;23.918;2023-04-20T08:37:03;95465.75;;;16.33;54.52
41222;BME280;26952;42.884;23.918;2023-04-20T08:39:28;95477.69;;;16.62;54.68
41222;BME280;26952;42.884;23.918;2023-04-20T08:41:54;95476.06;;;16.60;55.86
41222;BME280;26952;42.884;23.918;2023-04-20T08:44:21;95476.28;;;16.59;54.53
41222;BME280;26952;42.884;23.918;2023-04-20T08:46:47;95487.38;;;15.94;58.96
41222;BME280;26952;42.884;23.918;2023-04-20T08:49:17;95476.38;;;16.46;60.52
41222;BME280;26952;42.884;23.918;2023-04-20T08:51:43;95461.16;;;16.71;56.56
41222;BME280;26952;42.884;23.918;2023-04-20T08:54:10;95470.91;;;16.84;55.28
41222;BME280;26952;42.884;23.918;2023-04-20T08:56:44;95487.19;;;16.57;59.93
41222;BME280;26952;42.884;23.918;2023-04-20T08:59:10;95471.19;;;15.51;56.54
41222;BME280;26952;42.884;23.918;2023-04-20T09:01:37;95471.56;;;15.55;56.38
41222;BME280;26952;42.884;23.918;2023-04-20T09:06:46;95470.56;;;14.66;61.07
41222;BME280;26952;42.884;23.918;2023-04-20T09:09:14;95434.03;;;14.92;57.81
41222;BME280;26952;42.884;23.918;2023-04-20T09:11:39;95475.72;;;15.51;56.74
41222;BME280;26952;42.884;23.918;2023-04-20T09:14:05;95477.13;;;15.91;65.10
41222;BME280;26952;42.884;23.918;2023-04-20T09:16:34;95467.50;;;16.21;59.46
41222;BME280;26952;42.884;23.918;2023-04-20T09:19:00;95456.28;;;16.86;61.07
41222;BME280;26952;42.884;23.918;2023-04-20T09:21:26;95423.59;;;17.38;56.33
41222;BME280;26952;42.884;23.918;2023-04-20T09:24:00;95429.94;;;17.73;49.86
41222;BME280;26952;42.884;23.918;2023-04-20T09:26:26;95466.13;;;18.24;49.78
41222;BME280;26952;42.884;23.918;2023-04-20T09:28:51;95454.94;;;18.27;49.54
41222;BME280;26952;42.884;23.918;2023-04-20T09:31:18;95455.19;;;17.66;48.75
41222;BME280;26952;42.884;23.918;2023-04-20T09:33:44;95461.13;;;17.68;50.82
41222;BME280;26952;42.884;23.918;2023-04-20T09:36:09;95451.13;;;17.45;49.74
41222;BME280;26952;42.884;23.918;2023-04-20T09:38:36;95416.47;;;17.50;48.04
41222;BME280;26952;42.884;23.918;2023-04-20T09:41:01;95458.19;;;17.87;52.08
41222;BME280;26952;42.884;23.918;2023-04-20T09:43:28;95445.09;;;17.98;51.86
41222;BME280;26952;42.884;23.918;2023-04-20T09:45:54;95430.78;;;18.45;56.11
41222;BME280;26952;42.884;23.918;2023-04-20T09:48:23;95446.97;;;18.61;47.56
41222;BME280;26952;42.884;23.918;2023-04-20T09:50:48;95446.63;;;18.58;50.11
41222;BME280;26952;42.884;23.918;2023-04-20T09:53:17;95396.16;;;18.89;47.75
41222;BME280;26952;42.884;23.918;2023-04-20T09:55:45;95451.75;;;18.82;46.93
41222;BME280;26952;42.884;23.918;2023-04-20T09:58:12;95442.31;;;18.16;48.31
41222;BME280;26952;42.884;23.918;2023-04-20T10:00:37;95443.72;;;18.71;51.39
41222;BME280;26952;42.884;23.918;2023-04-20T10:03:03;95438.81;;;18.91;48.44
41222;BME280;26952;42.884;23.918;2023-04-20T10:05:35;95428.69;;;20.12;53.67
41222;BME280;26952;42.884;23.918;2023-04-20T10:08:01;95428.13;;;20.54;46.32
41222;BME280;26952;42.884;23.918;2023-04-20T10:10:27;95433.03;;;20.74;45.38
41222;BME280;26952;42.884;23.918;2023-04-20T10:12:55;95404.38;;;19.74;44.24
41222;BME280;26952;42.884;23.918;2023-04-20T10:15:21;95391.53;;;19.36;44.20
41222;BME280;26952;42.884;23.918;2023-04-20T10:17:48;95432.31;;;20.45;49.01
41222;BME280;26952;42.884;23.918;2023-04-20T10:20:24;95428.94;;;21.05;45.83
41222;BME280;26952;42.884;23.918;2023-04-20T10:23:04;95404.16;;;21.24;48.40
41222;BME280;26952;42.884;23.918;2023-04-20T10:25:30;95424.84;;;20.19;42.87
41222;BME280;26952;42.884;23.918;2023-04-20T10:28:00;95416.56;;;20.09;45.31
41222;BME280;26952;42.884;23.918;2023-04-20T10:30:29;95422.06;;;18.61;46.70
41222;BME280;26952;42.884;23.918;2023-04-20T10:33:09;95406.06;;;17.60;49.17
41222;BME280;26952;42.884;23.918;2023-04-20T10:35:43;95414.94;;;17.72;49.64
41222;BME280;26952;42.884;23.918;2023-04-20T10:38:08;95404.22;;;17.72;49.96
41222;BME280;26952;42.884;23.918;2023-04-20T10:40:35;95404.63;;;17.58;47.62
41222;BME280;26952;42.884;23.918;2023-04-20T10:43:01;95419.47;;;18.02;46.98
41222;BME280;26952;42.884;23.918;2023-04-20T10:45:34;95410.91;;;17.52;49.59
41222;BME280;26952;42.884;23.918;2023-04-20T10:48:09;95408.56;;;16.65;48.64
41222;BME280;26952;42.884;23.918;2023-04-20T10:50:35;95431.31;;;17.10;51.65
41222;BME280;26952;42.884;23.918;2023-04-20T10:53:02;95406.28;;;17.41;49.09
41222;BME280;26952;42.884;23.918;2023-04-20T10:55:29;95408.59;;;17.19;49.30
41222;BME280;26952;42.884;23.918;2023-04-20T10:57:54;95421.31;;;17.24;50.02
41222;BME280;26952;42.884;23.918;2023-04-20T11:00:25;95423.38;;;16.86;52.13
41222;BME280;26952;42.884;23.918;2023-04-20T11:02:53;95383.59;;;16.04;52.53
41222;BME280;26952;42.884;23.918;2023-04-20T11:05:20;95418.81;;;16.19;54.07
41222;BME280;26952;42.884;23.918;2023-04-20T11:07:53;95435.19;;;16.29;54.15
41222;BME280;26952;42.884;23.918;2023-04-20T11:10:19;95418.41;;;16.71;58.40
41222;BME280;26952;42.884;23.918;2023-04-20T11:12:46;95384.28;;;16.48;53.00
41222;BME280;26952;42.884;23.918;2023-04-20T11:15:11;95429.56;;;17.22;56.79
41222;BME280;26952;42.884;23.918;2023-04-20T11:17:38;95422.13;;;17.24;51.46
41222;BME280;26952;42.884;23.918;2023-04-20T11:20:08;95420.09;;;17.56;52.88
41222;BME280;26952;42.884;23.918;2023-04-20T11:22:35;95413.38;;;17.94;50.97
41222;BME280;26952;42.884;23.918;2023-04-20T11:25:03;95420.56;;;17.82;49.00
41222;BME280;26952;42.884;23.918;2023-04-20T11:27:29;95417.94;;;17.94;50.41
41222;BME280;26952;42.884;23.918;2023-04-20T11:29:56;95411.16;;;18.33;51.11
41222;BME280;26952;42.884;23.918;2023-04-20T11:32:22;95417.56;;;17.90;47.56
41222;BME280;26952;42.884;23.918;2023-04-20T11:34:57;95401.25;;;18.33;47.24
41222;BME280;26952;42.884;23.918;2023-04-20T11:37:22;95411.09;;;18.62;48.82
41222;BME280;26952;42.884;23.918;2023-04-20T11:39:58;95407.81;;;18.83;47.62
41222;BME280;26952;42.884;23.918;2023-04-20T11:42:23;95398.47;;;18.97;47.80
41222;BME280;26952;42.884;23.918;2023-04-20T11:44:48;95410.84;;;18.41;47.89
41222;BME280;26952;42.884;23.918;2023-04-20T11:47:14;95402.00;;;17.69;47.58
41222;BME280;26952;42.884;23.918;2023-04-20T11:49:39;95393.78;;;17.82;51.62
41222;BME280;26952;42.884;23.918;2023-04-20T11:52:04;95399.41;;;17.92;49.17
41222;BME280;26952;42.884;23.918;2023-04-20T11:54:30;95413.22;;;18.31;48.03
41222;BME280;26952;42.884;23.918;2023-04-20T11:56:58;95392.59;;;18.20;46.63
41222;BME280;26952;42.884;23.918;2023-04-20T11:59:24;95377.47;;;18.37;49.20
41222;BME280;26952;42.884;23.918;2023-04-20T12:01:49;95383.22;;;18.75;50.01
41222;BME280;26952;42.884;23.918;2023-04-20T12:04:15;95396.16;;;18.55;46.65
41222;BME280;26952;42.884;23.918;2023-04-20T12:06:40;95399.88;;;17.60;48.67
41222;BME280;26952;42.884;23.918;2023-04-20T12:09:06;95390.03;;;17.24;49.57
41222;BME280;26952;42.884;23.918;2023-04-20T12:11:31;95410.53;;;17.12;50.38
41222;BME280;26952;42.884;23.918;2023-04-20T12:13:57;95393.72;;;17.23;51.44
41222;BME280;26952;42.884;23.918;2023-04-20T12:16:24;95402.34;;;16.89;54.67
41222;BME280;26952;42.884;23.918;2023-04-20T12:18:50;95412.44;;;16.44;55.51
41222;BME280;26952;42.884;23.918;2023-04-20T12:21:15;95408.66;;;15.78;54.99
41222;BME280;26952;42.884;23.918;2023-04-20T12:23:40;95407.91;;;15.65;55.49
41222;BME280;26952;42.884;23.918;2023-04-20T12:26:08;95357.69;;;15.11;57.21
41222;BME280;26952;42.884;23.918;2023-04-20T12:28:33;95401.44;;;15.85;57.58
41222;BME280;26952;42.884;23.918;2023-04-20T12:30:59;95424.50;;;16.04;51.73
41222;BME280;26952;42.884;23.918;2023-04-20T12:33:25;95420.09;;;15.54;55.43
41222;BME280;26952;42.884;23.918;2023-04-20T12:35:50;95407.56;;;15.48;53.01
41222;BME280;26952;42.884;23.918;2023-04-20T12:38:16;95386.28;;;15.73;53.58
41222;BME280;26952;42.884;23.918;2023-04-20T12:40:41;95375.16;;;16.07;56.70
41222;BME280;26952;42.884;23.918;2023-04-20T12:43:07;95371.88;;;16.54;54.87
41222;BME280;26952;42.884;23.918;2023-04-20T12:45:32;95389.22;;;17.06;53.01
41222;BME280;26952;42.884;23.918;2023-04-20T12:47:58;95379.75;;;17.39;53.32